Time;durP1;ratioP1;P1;durP2;ratioP2;P2;SDS_P1;SDS_P2;PMS_P1;PMS_P2;Temp;Humidity;BMP_temperature;BMP_pressure;BME280_temperature;BME280_humidity;BME280_pressure;Samples;Min_cycle;Max_cycle;Signal;HPM_P1;HPM_P2
2023/10/21 00:00:31;;;;;;;23.42;5.95;;;22.60;62.10;;;;;;5095853;28;20370;-82
2023/10/21 00:02:57;;;;;;;22.83;6.15;;;22.70;62.20;;;;;;5096135;28;20020;-82
2023/10/21 00:05:24;;;;;;;22.83;6.22;;;22.70;62.10;;;;;;5077309;28;20522;-82
2023/10/21 00:07:50;;;;;;;20.33;5.18;;;22.60;62.20;;;;;;5095579;28;20048;-81
2023/10/21 00:10:16;;;;;;;22.65;5.80;;;22.70;62.30;;;;;;5057581;28;20017;-83
2023/10/21 00:12:44;;;;;;;24.50;6.00;;;22.60;62.30;;;;;;5065986;28;20047;-81
2023/10/21 00:15:10;;;;;;;20.67;5.70;;;22.60;62.40;;;;;;5097530;28;20114;-80
2023/10/21 00:17:36;;;;;;;25.48;5.78;;;22.60;62.50;;;;;;5103186;28;20099;-83
2023/10/21 00:20:06;;;;;;;17.33;5.90;;;22.50;62.70;;;;;;5095069;28;20036;-90
2023/10/21 00:22:33;;;;;;;19.33;6.30;;;22.50;63.30;;;;;;5089570;28;20028;-78
2023/10/21 00:25:00;;;;;;;17.73;6.13;;;22.70;62.40;;;;;;5086039;28;20043;-80
2023/10/21 00:27:26;;;;;;;22.45;6.75;;;;;;;;;;5095449;28;20075;-78
2023/10/21 00:29:53;;;;;;;20.05;6.32;;;;;;;;;;5077145;28;20020;-80
2023/10/21 00:32:19;;;;;;;20.02;3.53;;;;;;;;;;5075427;28;20023;-80
2023/10/21 00:34:45;;;;;;;24.15;3.17;;;;;;;;;;5074749;28;20606;-79
2023/10/21 00:39:16;;;;;;;26.02;6.88;;;;;;;;;;5165797;27;20315;-78
2023/10/21 00:41:42;;;;;;;27.50;7.35;;;;;;;;;;5150788;27;20529;-77
2023/10/21 00:47:02;;;;;;;15.88;4.13;;;;;;;;;;5069209;28;20384;-81
2023/10/21 00:49:32;;;;;;;21.20;5.82;;;;;;;;;;5051261;28;20036;-77
2023/10/21 00:52:21;;;;;;;23.58;6.68;;;;;;;;;;5070785;28;20783;-78
2023/10/21 00:57:24;;;;;;;28.45;8.32;;;;;;;;;;5070962;28;20391;-78
2023/10/21 00:59:51;;;;;;;18.67;6.68;;;;;;;;;;5070931;28;20031;-81
2023/10/21 01:02:17;;;;;;;28.98;8.05;;;;;;;;;;5069769;28;20074;-77
2023/10/21 01:04:43;;;;;;;24.02;5.60;;;;;;;;;;5069065;28;20021;-79
2023/10/21 01:07:16;;;;;;;14.80;5.05;;;;;;;;;;5070963;28;20031;-77
2023/10/21 01:09:43;;;;;;;19.15;5.70;;;;;;;;;;5069573;28;20020;-77
2023/10/21 01:12:09;;;;;;;26.92;9.18;;;;;;;;;;5070673;28;20281;-78
2023/10/21 01:16:50;;;;;;;19.95;6.47;;;;;;;;;;5096610;27;20652;-76
2023/10/21 01:19:57;;;;;;;34.42;6.35;;;;;;;;;;5071013;28;20445;-79
2023/10/21 01:22:24;;;;;;;17.42;3.03;;;;;;;;;;5069684;28;20348;-77
2023/10/21 01:24:50;;;;;;;24.95;7.50;;;;;;;;;;5066735;28;20013;-78
2023/10/21 01:27:16;;;;;;;21.38;4.75;;;;;;;;;;5051860;28;20068;-79
2023/10/21 01:29:43;;;;;;;17.33;7.55;;;;;;;;;;5052662;28;20035;-77
2023/10/21 01:32:09;;;;;;;18.17;5.18;;;;;;;;;;5051227;28;20021;-79
2023/10/21 01:34:35;;;;;;;15.73;7.22;;;;;;;;;;5048782;28;20013;-80
2023/10/21 01:37:01;;;;;;;20.48;2.70;;;;;;;;;;5056272;28;20021;-79
2023/10/21 01:39:27;;;;;;;27.02;6.22;;;;;;;;;;5053021;28;20021;-79
2023/10/21 01:41:53;;;;;;;15.43;6.15;;;;;;;;;;5049171;28;20029;-79
2023/10/21 01:44:19;;;;;;;19.88;5.72;;;;;;;;;;5055336;28;20051;-78
2023/10/21 01:46:46;;;;;;;17.05;5.60;;;;;;;;;;5052367;28;20017;-80
2023/10/21 01:49:12;;;;;;;21.90;6.05;;;;;;;;;;5051110;28;20069;-80
2023/10/21 01:51:38;;;;;;;29.80;6.78;;;;;;;;;;5049834;28;20031;-80
2023/10/21 01:54:04;;;;;;;18.17;6.18;;;;;;;;;;5053766;28;20032;-78
2023/10/21 01:56:30;;;;;;;21.45;6.40;;;;;;;;;;5053167;28;20047;-78
2023/10/21 01:58:57;;;;;;;18.95;5.30;;;;;;;;;;5049866;28;20025;-80
2023/10/21 02:01:23;;;;;;;15.38;5.45;;;;;;;;;;5053000;28;20040;-78
2023/10/21 02:03:49;;;;;;;18.38;7.95;;;;;;;;;;5059512;28;20494;-81
2023/10/21 02:06:15;;;;;;;22.65;6.32;;;;;;;;;;5052424;28;20028;-79
2023/10/21 02:08:41;;;;;;;24.60;5.63;;;;;;;;;;5053432;28;20382;-79
2023/10/21 02:11:08;;;;;;;15.05;5.93;;;;;;;;;;5069837;28;20470;-78
2023/10/21 02:13:34;;;;;;;13.40;5.10;;;;;;;;;;5070213;28;20016;-80
2023/10/21 02:16:00;;;;;;;17.30;7.35;;;;;;;;;;5068680;28;20091;-80
2023/10/21 02:18:27;;;;;;;21.25;6.13;;;;;;;;;;5066952;28;20086;-78
2023/10/21 02:20:52;;;;;;;17.52;5.80;;;23.50;59.00;;;;;;5070238;28;20024;-79
2023/10/21 02:23:18;;;;;;;19.23;6.35;;;23.40;59.70;;;;;;5069827;28;20336;-79
2023/10/21 02:25:44;;;;;;;18.48;5.72;;;23.40;59.70;;;;;;5068282;28;20032;-80
2023/10/21 02:28:10;;;;;;;14.68;5.20;;;23.40;59.80;;;;;;5057801;28;20032;-80
2023/10/21 02:30:36;;;;;;;30.70;6.40;;;23.40;59.90;;;;;;5054639;28;20021;-80
2023/10/21 02:33:03;;;;;;;23.40;5.63;;;23.30;60.00;;;;;;5034802;28;20048;-80
2023/10/21 02:35:32;;;;;;;14.35;5.13;;;23.30;60.20;;;;;;5040325;28;20068;-79
2023/10/21 02:37:58;;;;;;;20.58;5.53;;;23.30;60.30;;;;;;5039389;28;20070;-79
2023/10/21 02:40:24;;;;;;;26.10;6.22;;;23.20;60.50;;;;;;5037795;28;20104;-79
2023/10/21 02:42:49;;;;;;;14.38;5.25;;;23.20;60.70;;;;;;5036605;28;20088;-79
2023/10/21 02:45:15;;;;;;;18.92;5.50;;;23.10;61.10;;;;;;5035458;28;20028;-80
2023/10/21 02:47:41;;;;;;;28.38;6.75;;;23.10;61.30;;;;;;5037402;28;20028;-80
2023/10/21 02:50:07;;;;;;;16.90;4.90;;;23.00;61.60;;;;;;5038811;28;20029;-80
2023/10/21 02:52:37;;;;;;;20.00;5.50;;;22.90;61.90;;;;;;5038168;28;20025;-79
2023/10/21 02:55:04;;;;;;;11.00;4.50;;;22.90;61.80;;;;;;5035909;28;20032;-80
2023/10/21 02:57:29;;;;;;;24.88;5.25;;;23.00;62.10;;;;;;5041002;28;20068;-80
2023/10/21 02:59:55;;;;;;;24.50;5.05;;;22.90;61.90;;;;;;5038696;28;20083;-80
2023/10/21 03:02:21;;;;;;;15.35;4.80;;;22.90;62.10;;;;;;5036568;28;20022;-80
2023/10/21 03:04:47;;;;;;;16.10;4.63;;;22.90;62.50;;;;;;5034417;28;20108;-80
2023/10/21 03:07:12;;;;;;;19.20;6.20;;;22.90;62.40;;;;;;5034641;28;20121;-80
2023/10/21 03:09:38;;;;;;;26.83;5.57;;;22.90;62.70;;;;;;5038812;28;20049;-80
2023/10/21 03:12:04;;;;;;;15.88;5.72;;;22.80;62.70;;;;;;5039294;28;20033;-79
2023/10/21 03:14:30;;;;;;;14.63;4.63;;;22.80;63.20;;;;;;5068955;28;20522;-80
2023/10/21 03:16:56;;;;;;;18.60;5.00;;;22.80;63.10;;;;;;5034050;28;20113;-79
2023/10/21 03:19:22;;;;;;;24.65;5.10;;;22.80;63.10;;;;;;5033201;28;20107;-79
2023/10/21 03:21:47;;;;;;;17.92;5.35;;;22.80;63.10;;;;;;5038257;28;20418;-79
2023/10/21 03:24:13;;;;;;;22.25;5.22;;;22.90;63.10;;;;;;5036001;28;20403;-80
2023/10/21 03:26:39;;;;;;;17.60;5.32;;;22.90;63.00;;;;;;5034489;28;20848;-80
2023/10/21 03:29:05;;;;;;;25.45;5.60;;;22.90;63.30;;;;;;5040977;28;20040;-80
2023/10/21 03:31:30;;;;;;;16.80;5.32;;;22.80;63.60;;;;;;5034862;28;20519;-80
2023/10/21 03:33:56;;;;;;;19.17;4.78;;;22.80;63.60;;;;;;5036739;28;20025;-80
2023/10/21 03:36:22;;;;;;;21.38;5.63;;;22.80;63.60;;;;;;5041272;28;20027;-79
2023/10/21 03:38:48;;;;;;;16.67;5.22;;;22.80;63.70;;;;;;5039043;28;20064;-79
2023/10/21 03:41:16;;;;;;;18.08;5.30;;;22.80;63.80;;;;;;5036770;28;20056;-81
2023/10/21 03:43:42;;;;;;;20.02;5.15;;;22.80;64.20;;;;;;5036709;28;20037;-81
2023/10/21 03:46:14;;;;;;;21.95;5.25;;;22.80;64.20;;;;;;5035635;28;20051;-79
2023/10/21 03:48:40;;;;;;;26.23;4.55;;;22.70;64.50;;;;;;5045378;28;20037;-80
2023/10/21 03:51:11;;;;;;;17.77;4.65;;;22.70;64.90;;;;;;5040708;28;20043;-80
2023/10/21 03:53:41;;;;;;;26.35;5.50;;;22.70;64.90;;;;;;5047839;28;20412;-79
2023/10/21 03:56:08;;;;;;;15.07;5.40;;;22.60;64.90;;;;;;5044748;28;20021;-80
2023/10/21 03:58:34;;;;;;;17.10;5.68;;;22.60;65.10;;;;;;5036704;28;20034;-80
2023/10/21 04:01:00;;;;;;;16.15;4.60;;;22.60;65.50;;;;;;5039165;28;20040;-80
2023/10/21 04:03:27;;;;;;;22.50;4.82;;;22.50;65.50;;;;;;5043145;28;20028;-79
2023/10/21 04:05:54;;;;;;;19.67;5.03;;;22.50;65.90;;;;;;5033854;28;20031;-79
2023/10/21 04:08:21;;;;;;;25.75;4.43;;;22.50;66.00;;;;;;5053004;28;20446;-79
2023/10/21 04:10:46;;;;;;;19.30;5.22;;;22.50;66.30;;;;;;5053369;28;20076;-79
2023/10/21 04:13:12;;;;;;;30.40;5.32;;;22.50;66.30;;;;;;5053337;28;20435;-80
2023/10/21 04:15:39;;;;;;;28.38;5.80;;;22.50;66.70;;;;;;5054198;28;20132;-80
2023/10/21 04:18:05;;;;;;;22.85;6.53;;;22.50;66.80;;;;;;5045278;28;20107;-80
2023/10/21 04:20:34;;;;;;;19.35;5.35;;;22.40;67.30;;;;;;5054820;28;20029;-79
2023/10/21 04:23:00;;;;;;;17.17;5.60;;;22.40;67.00;;;;;;5018737;28;20029;-80
2023/10/21 04:25:27;;;;;;;22.67;5.47;;;22.40;67.20;;;;;;5049532;28;20017;-79
2023/10/21 04:27:53;;;;;;;23.00;5.10;;;22.40;67.60;;;;;;5035104;28;20023;-80
2023/10/21 04:30:19;;;;;;;19.05;4.90;;;22.30;67.80;;;;;;5040272;28;20033;-80
2023/10/21 04:32:44;;;;;;;21.58;5.13;;;22.40;68.00;;;;;;5036067;28;20070;-80
2023/10/21 04:35:10;;;;;;;16.35;4.28;;;22.40;68.40;;;;;;5036834;28;20071;-80
2023/10/21 04:37:37;;;;;;;21.27;4.85;;;22.50;68.30;;;;;;5035376;28;20103;-80
2023/10/21 04:40:03;;;;;;;24.13;5.30;;;22.60;68.30;;;;;;5033667;28;20068;-80
2023/10/21 04:42:29;;;;;;;19.60;6.90;;;;;;;;;;5033595;28;20052;-80
2023/10/21 04:44:56;;;;;;;19.13;6.65;;;;;;;;;;5037601;28;20032;-81
2023/10/21 04:47:21;;;;;;;28.27;8.23;;;23.10;66.60;;;;;;5035936;28;20032;-78
2023/10/21 04:49:48;;;;;;;25.35;6.75;;;23.20;66.80;;;;;;5033986;28;20037;-80
2023/10/21 04:52:15;;;;;;;15.65;5.18;;;23.30;66.20;;;;;;5031449;28;20021;-80
2023/10/21 04:54:44;;;;;;;18.58;4.53;;;;;;;;;;5038030;28;20148;-81
2023/10/21 04:57:11;;;;;;;17.98;4.85;;;23.60;64.90;;;;;;5034440;28;20464;-78
2023/10/21 04:59:38;;;;;;;12.50;4.15;;;23.60;65.40;;;;;;5032398;28;20025;-76
2023/10/21 05:02:04;;;;;;;20.20;5.68;;;23.70;65.00;;;;;;5033103;28;20059;-80
2023/10/21 05:04:31;;;;;;;19.65;5.45;;;23.80;64.70;;;;;;5033215;28;20033;-79
2023/10/21 05:06:57;;;;;;;22.75;5.43;;;23.80;64.60;;;;;;5037082;28;20025;-79
2023/10/21 05:09:23;;;;;;;12.85;4.70;;;23.80;64.70;;;;;;5029251;28;20032;-79
2023/10/21 05:11:49;;;;;;;17.45;4.57;;;23.80;65.40;;;;;;5031983;28;20371;-78
2023/10/21 05:14:15;;;;;;;21.90;6.40;;;23.80;64.50;;;;;;5037116;28;20451;-79
2023/10/21 05:16:41;;;;;;;17.95;6.63;;;;;;;;;;5035452;28;20025;-79
2023/10/21 05:19:07;;;;;;;23.08;8.85;;;23.90;63.60;;;;;;5031166;28;20467;-77
2023/10/21 05:24:25;;;;;;;16.77;5.65;;;24.00;63.60;;;;;;5099856;27;20649;-78
2023/10/21 05:26:50;;;;;;;18.27;5.65;;;24.00;64.10;;;;;;5076222;28;20495;-79
2023/10/21 05:29:16;;;;;;;17.63;4.53;;;24.00;64.20;;;;;;5081251;28;20025;-76
2023/10/21 05:35:30;;;;;;;21.58;8.73;;;24.00;63.70;;;;;;5070240;28;20457;-77
2023/10/21 05:37:56;;;;;;;16.50;9.05;;;24.00;64.00;;;;;;5052590;28;20021;-79
2023/10/21 05:40:22;;;;;;;25.50;6.00;;;24.00;64.20;;;;;;5057812;28;20103;-76
2023/10/21 05:42:47;;;;;;;21.48;7.80;;;24.10;63.90;;;;;;5057417;28;20348;-78
2023/10/21 05:45:13;;;;;;;29.80;5.57;;;24.10;63.90;;;;;;5065621;28;20024;-77
2023/10/21 05:47:39;;;;;;;30.42;8.82;;;24.10;63.80;;;;;;5062447;28;20455;-76
2023/10/21 05:50:06;;;;;;;23.58;7.53;;;24.00;63.60;;;;;;5054155;28;20025;-76
2023/10/21 05:52:31;;;;;;;22.90;6.80;;;24.10;63.80;;;;;;5064616;28;20028;-78
2023/10/21 05:58:19;;;;;;;32.13;8.68;;;24.20;62.60;;;;;;5090244;27;20406;-76
2023/10/21 06:00:45;;;;;;;22.48;6.03;;;24.10;63.50;;;;;;5091597;28;20520;-76
2023/10/21 06:03:11;;;;;;;22.33;6.72;;;24.10;63.50;;;;;;5091024;28;20020;-76
2023/10/21 06:06:19;;;;;;;15.77;3.58;;;24.10;62.70;;;;;;5111746;27;20320;-78
2023/10/21 06:09:17;;;;;;;19.30;7.63;;;24.10;62.80;;;;;;5111501;27;20282;-79
2023/10/21 06:11:43;;;;;;;19.05;4.93;;;24.10;63.50;;;;;;5111558;28;20024;-77
2023/10/21 06:14:09;;;;;;;21.38;6.68;;;24.10;63.50;;;;;;5075244;28;20366;-78
2023/10/21 06:16:34;;;;;;;19.05;4.85;;;24.00;63.80;;;;;;5091518;28;20028;-74
2023/10/21 06:19:00;;;;;;;18.65;6.43;;;24.00;63.90;;;;;;5079078;28;20029;-76
2023/10/21 06:22:17;;;;;;;14.73;5.72;;;23.90;63.60;;;;;;5095554;27;20326;-76
2023/10/21 06:24:43;;;;;;;22.48;8.57;;;23.90;64.70;;;;;;5091137;28;20532;-76
2023/10/21 06:27:10;;;;;;;24.52;5.80;;;23.80;64.30;;;;;;5089623;28;20024;-75
2023/10/21 06:29:36;;;;;;;13.38;6.05;;;23.80;64.90;;;;;;5089460;28;20035;-77
2023/10/21 06:32:04;;;;;;;18.83;4.93;;;23.80;64.90;;;;;;5088789;28;20030;-75
2023/10/21 06:34:30;;;;;;;18.27;5.22;;;23.80;65.00;;;;;;5090854;28;20016;-75
2023/10/21 06:36:56;;;;;;;30.08;7.75;;;23.80;65.30;;;;;;5090927;28;20093;-78
2023/10/21 06:39:22;;;;;;;18.58;5.63;;;23.80;65.20;;;;;;5089813;28;20065;-78
2023/10/21 06:41:47;;;;;;;20.17;9.23;;;23.70;65.30;;;;;;5089002;28;20123;-78
2023/10/21 06:44:16;;;;;;;19.00;6.35;;;23.80;65.30;;;;;;5089373;28;20028;-77
2023/10/21 06:46:42;;;;;;;17.38;7.00;;;23.80;65.40;;;;;;5089869;28;20093;-78
2023/10/21 06:49:09;;;;;;;21.42;7.03;;;23.80;65.50;;;;;;5090419;28;20099;-79
2023/10/21 06:51:36;;;;;;;23.98;8.43;;;23.80;65.30;;;;;;5089855;28;20474;-78
2023/10/21 06:54:02;;;;;;;21.55;7.07;;;23.90;65.50;;;;;;5088435;28;20370;-77
2023/10/21 06:56:28;;;;;;;15.93;5.47;;;23.90;65.40;;;;;;5090490;28;20043;-76
2023/10/21 06:58:54;;;;;;;18.90;8.93;;;23.90;65.60;;;;;;5089536;28;20447;-78
2023/10/21 07:01:20;;;;;;;23.35;7.75;;;23.90;65.90;;;;;;5088196;28;20020;-78
2023/10/21 07:03:45;;;;;;;19.33;6.75;;;23.80;65.80;;;;;;5087592;28;20062;-78
2023/10/21 07:06:11;;;;;;;18.33;6.72;;;23.90;65.90;;;;;;5087566;28;20031;-79
2023/10/21 07:08:37;;;;;;;23.27;7.35;;;23.90;65.80;;;;;;5090194;28;20028;-79
2023/10/21 07:11:03;;;;;;;13.40;6.20;;;23.90;65.90;;;;;;5090173;28;20344;-76
2023/10/21 07:13:29;;;;;;;17.35;6.25;;;23.90;65.90;;;;;;5090577;28;20024;-76
2023/10/21 07:15:55;;;;;;;25.30;7.47;;;23.90;66.00;;;;;;5088835;28;20054;-77
2023/10/21 07:18:21;;;;;;;16.40;6.93;;;23.90;65.70;;;;;;5090452;28;20020;-76
2023/10/21 07:20:47;;;;;;;15.93;8.00;;;23.90;65.70;;;;;;5098341;28;20454;-77
2023/10/21 07:23:14;;;;;;;24.83;7.65;;;23.90;65.80;;;;;;5110231;28;20062;-77
2023/10/21 07:25:42;;;;;;;18.70;7.38;;;23.90;66.10;;;;;;5110573;28;20027;-76
2023/10/21 07:28:08;;;;;;;20.15;8.23;;;23.90;66.20;;;;;;5109828;28;20032;-76
2023/10/21 07:30:33;;;;;;;18.10;6.25;;;23.90;65.90;;;;;;5110750;28;20144;-77
2023/10/21 07:33:02;;;;;;;20.67;7.57;;;24.00;66.00;;;;;;5100134;28;20059;-75
2023/10/21 07:35:28;;;;;;;19.10;6.60;;;;;;;;;;5096377;28;20017;-75
2023/10/21 07:37:54;;;;;;;18.98;7.35;;;;;;;;;;5097057;28;20473;-77
2023/10/21 07:40:21;;;;;;;25.17;6.72;;;;;;;;;;5096295;28;20024;-77
2023/10/21 07:42:47;;;;;;;15.02;6.90;;;;;;;;;;5096003;28;20038;-78
2023/10/21 07:45:14;;;;;;;21.45;10.07;;;;;;;;;;5096299;28;20065;-78
2023/10/21 07:47:41;;;;;;;18.35;7.68;;;;;;;;;;5096552;28;20016;-79
2023/10/21 07:50:07;;;;;;;22.85;6.70;;;;;;;;;;5096133;28;20144;-77
2023/10/21 07:52:37;;;;;;;14.98;6.28;;;;;;;;;;5096574;28;20020;-77
2023/10/21 07:55:03;;;;;;;24.77;6.32;;;;;;;;;;5096639;28;20450;-79
2023/10/21 07:57:31;;;;;;;17.67;7.20;;;;;;;;;;5095842;28;20023;-79
2023/10/21 07:59:58;;;;;;;15.95;7.72;;;;;;;;;;5078046;28;20016;-78
2023/10/21 08:02:24;;;;;;;22.65;6.75;;;;;;;;;;5096649;28;20424;-79
2023/10/21 08:04:50;;;;;;;21.17;6.70;;;;;;;;;;5077445;28;20031;-79
2023/10/21 08:07:16;;;;;;;18.55;7.75;;;;;;;;;;5078093;28;20055;-78
2023/10/21 08:09:43;;;;;;;25.15;7.43;;;;;;;;;;5095612;28;20016;-79
2023/10/21 08:12:09;;;;;;;14.95;7.03;;;;;;;;;;5075864;28;20052;-77
2023/10/21 08:14:36;;;;;;;23.63;9.23;;;24.00;65.40;;;;;;5093684;28;20031;-77
2023/10/21 08:17:04;;;;;;;20.23;7.57;;;24.00;66.20;;;;;;5077500;28;20343;-76
2023/10/21 08:19:31;;;;;;;20.73;6.90;;;24.10;65.90;;;;;;5077548;28;20035;-76
2023/10/21 08:22:03;;;;;;;21.58;7.45;;;24.10;66.10;;;;;;5094828;28;20043;-74
2023/10/21 08:24:31;;;;;;;16.05;7.03;;;24.20;66.20;;;;;;5076508;28;20024;-75
2023/10/21 08:26:57;;;;;;;22.10;7.13;;;24.20;66.20;;;;;;5095011;28;20572;-77
2023/10/21 08:29:22;;;;;;;17.25;5.93;;;24.10;66.90;;;;;;5095825;28;20035;-77
2023/10/21 08:31:48;;;;;;;18.70;6.07;;;24.10;66.80;;;;;;5077215;28;20020;-76
2023/10/21 08:34:14;;;;;;;20.58;8.40;;;24.10;66.70;;;;;;5095481;28;20107;-77
2023/10/21 08:37:56;;;;;;;19.33;5.03;;;24.10;66.10;;;;;;5070620;28;20383;-77
2023/10/21 08:40:22;;;;;;;17.83;6.25;;;24.20;66.80;;;;;;5055675;28;20416;-77
2023/10/21 08:42:48;;;;;;;16.80;5.05;;;24.20;66.70;;;;;;5069148;28;20033;-77
2023/10/21 08:45:16;;;;;;;19.92;6.65;;;24.10;66.90;;;;;;5066454;28;20120;-78
2023/10/21 08:47:44;;;;;;;15.20;6.45;;;24.20;66.90;;;;;;5049851;28;20411;-76
2023/10/21 08:50:12;;;;;;;17.35;5.97;;;24.20;66.90;;;;;;5056382;28;20466;-77
2023/10/21 08:52:40;;;;;;;14.43;2.70;;;24.10;67.10;;;;;;5054671;28;20071;-77
2023/10/21 08:55:06;;;;;;;17.15;6.05;;;24.10;67.20;;;;;;5056003;28;20051;-78
2023/10/21 08:57:36;;;;;;;17.38;5.47;;;24.20;67.00;;;;;;5051923;28;20100;-83
2023/10/21 09:00:05;;;;;;;21.02;5.95;;;24.10;67.50;;;;;;5055781;28;20029;-77
2023/10/21 09:02:30;;;;;;;20.25;6.20;;;24.00;67.10;;;;;;5041731;28;20021;-78
2023/10/21 09:04:56;;;;;;;14.45;6.18;;;24.10;67.00;;;;;;5056296;28;20116;-78
2023/10/21 09:07:22;;;;;;;15.60;6.30;;;24.10;67.30;;;;;;5049547;28;20348;-81
2023/10/21 09:09:48;;;;;;;15.43;3.38;;;24.00;67.30;;;;;;5060280;28;20036;-82
2023/10/21 09:12:14;;;;;;;15.23;5.82;;;24.00;67.70;;;;;;5066012;28;20021;-83
2023/10/21 09:14:51;;;;;;;17.25;6.28;;;23.90;67.60;;;;;;5055094;28;20474;-82
2023/10/21 09:17:18;;;;;;;17.17;3.95;;;23.90;68.10;;;;;;5069963;28;20029;-84
2023/10/21 09:19:43;;;;;;;15.15;4.22;;;23.90;68.70;;;;;;5070106;28;20111;-79
2023/10/21 09:22:27;;;;;;;15.70;5.18;;;23.90;69.30;;;;;;5069865;28;20104;-79
2023/10/21 09:25:15;;;;;;;17.73;4.63;;;23.80;70.30;;;;;;5061924;28;20022;-79
2023/10/21 09:27:44;;;;;;;17.73;6.90;;;23.70;71.10;;;;;;5069817;28;20024;-80
2023/10/21 09:30:18;;;;;;;24.67;7.63;;;23.70;71.70;;;;;;5069823;28;20025;-80
2023/10/21 09:32:46;;;;;;;19.98;8.10;;;23.70;72.60;;;;;;5070065;28;20112;-80
2023/10/21 09:35:25;;;;;;;20.70;8.50;;;23.70;73.10;;;;;;5048852;28;20021;-77
2023/10/21 09:37:51;;;;;;;32.00;11.27;;;23.60;73.70;;;;;;5049319;28;20041;-79
2023/10/21 09:40:18;;;;;;;24.88;10.95;;;23.60;74.10;;;;;;5053274;28;20029;-80
2023/10/21 09:42:47;;;;;;;23.42;10.48;;;23.50;74.40;;;;;;5051769;28;20494;-80
2023/10/21 09:45:16;;;;;;;27.08;10.15;;;23.50;75.00;;;;;;5052423;28;20098;-78
2023/10/21 09:47:43;;;;;;;27.70;8.75;;;23.40;74.90;;;;;;5046121;28;20025;-79
2023/10/21 09:50:14;;;;;;;26.08;8.15;;;23.40;75.40;;;;;;5039221;28;20025;-79
2023/10/21 09:52:40;;;;;;;;;;;23.40;76.00;;;;;;5048148;28;20332;-79
2023/10/21 09:55:11;;;;;;;26.83;7.88;;;23.40;76.20;;;;;;5035640;28;19996;-79
2023/10/21 09:57:37;;;;;;;18.08;9.30;;;23.40;76.60;;;;;;5037408;28;20029;-79
2023/10/21 10:00:07;;;;;;;26.13;9.23;;;23.30;77.30;;;;;;5039246;28;20467;-79
2023/10/21 10:02:36;;;;;;;22.80;9.18;;;23.30;77.30;;;;;;5037855;28;20024;-78
2023/10/21 10:05:08;;;;;;;24.45;9.02;;;23.30;77.30;;;;;;5038142;28;20032;-82
2023/10/21 10:07:39;;;;;;;28.73;9.38;;;23.20;77.50;;;;;;5036670;28;20048;-81
2023/10/21 10:10:07;;;;;;;25.92;8.05;;;23.20;78.00;;;;;;5035572;28;20024;-79
2023/10/21 10:12:38;;;;;;;26.05;8.20;;;23.20;79.30;;;;;;5034311;28;20463;-79
2023/10/21 10:15:31;;;;;;;24.43;9.53;;;23.10;78.90;;;;;;5038000;28;20021;-81
2023/10/21 10:17:57;;;;;;;31.08;9.02;;;23.10;79.60;;;;;;5033879;28;20042;-79
2023/10/21 10:20:25;;;;;;;25.55;8.43;;;23.10;80.10;;;;;;5034919;28;20028;-79
2023/10/21 10:23:22;;;;;;;20.08;8.23;;;23.00;80.10;;;;;;5046415;28;20340;-81
2023/10/21 10:25:52;;;;;;;32.97;8.40;;;23.00;80.40;;;;;;5039588;28;20030;-79
2023/10/21 10:28:20;;;;;;;26.02;7.63;;;22.90;81.20;;;;;;5034220;28;20374;-81
2023/10/21 10:30:49;;;;;;;28.08;7.72;;;22.90;84.00;;;;;;5044159;28;20024;-83
2023/10/21 10:33:22;;;;;;;28.58;8.65;;;22.80;86.30;;;;;;5055824;28;20063;-82
2023/10/21 10:35:50;;;;;;;21.55;8.07;;;22.70;87.30;;;;;;5023580;28;20394;-82
2023/10/21 10:38:36;;;;;;;24.27;8.73;;;22.60;87.10;;;;;;5052909;28;20044;-84
2023/10/21 10:41:15;;;;;;;24.27;7.88;;;22.60;88.90;;;;;;5022080;28;20044;-82
2023/10/21 10:43:49;;;;;;;29.65;7.35;;;22.70;89.30;;;;;;5036530;28;20039;-79
2023/10/21 10:46:23;;;;;;;24.55;8.82;;;22.70;90.10;;;;;;5030231;28;20111;-80
2023/10/21 10:48:52;;;;;;;24.70;8.48;;;22.80;90.50;;;;;;5034531;28;20487;-78
2023/10/21 10:51:41;;;;;;;28.73;10.45;;;23.00;90.30;;;;;;5012341;28;20029;-79
2023/10/21 10:54:10;;;;;;;24.40;10.52;;;23.40;91.60;;;;;;5029313;28;20033;-79
2023/10/21 10:56:39;;;;;;;33.15;10.07;;;23.70;90.60;;;;;;5046118;28;20041;-78
2023/10/21 10:59:05;;;;;;;31.02;9.65;;;;;;;;;;5046560;28;20124;-79
2023/10/21 11:01:32;;;;;;;34.88;10.52;;;;;;;;;;5052654;28;20020;-79
2023/10/21 11:04:00;;;;;;;22.08;9.07;;;;;;;;;;5019390;28;20036;-80
2023/10/21 11:06:30;;;;;;;33.92;13.55;;;;;;;;;;5051683;28;20060;-80
2023/10/21 11:08:58;;;;;;;34.88;11.32;;;;;;;;;;5052261;28;20375;-81
2023/10/21 11:11:24;;;;;;;42.97;11.57;;;;;;;;;;5035700;28;20017;-80
2023/10/21 11:13:50;;;;;;;40.13;12.40;;;;;;;;;;5052266;28;20064;-80
2023/10/21 11:16:18;;;;;;;29.67;10.73;;;;;;;;;;5047439;28;20045;-80
2023/10/21 11:18:44;;;;;;;39.30;10.48;;;;;;;;;;5053008;28;20025;-79
2023/10/21 11:21:10;;;;;;;31.15;9.88;;;;;;;;;;5054400;28;20017;-80
2023/10/21 11:23:36;;;;;;;35.20;10.35;;;23.90;83.30;;;;;;5054747;28;20021;-80
2023/10/21 11:26:02;;;;;;;42.38;11.68;;;23.90;84.30;;;;;;5052654;28;20078;-80
2023/10/21 11:28:29;;;;;;;38.40;11.57;;;23.80;83.70;;;;;;5053392;28;20025;-79
2023/10/21 11:30:56;;;;;;;29.15;9.98;;;23.70;83.10;;;;;;5053419;28;20115;-79
2023/10/21 11:33:22;;;;;;;32.28;10.90;;;23.70;83.90;;;;;;5053932;28;20100;-80
2023/10/21 11:35:48;;;;;;;32.80;10.65;;;23.70;84.10;;;;;;5053697;28;20103;-79
2023/10/21 11:38:17;;;;;;;27.50;9.80;;;23.60;83.60;;;;;;5052966;28;20024;-80
2023/10/21 11:40:44;;;;;;;44.00;9.95;;;23.60;83.00;;;;;;5054152;28;20033;-79
2023/10/21 11:43:13;;;;;;;28.50;11.10;;;23.60;81.50;;;;;;5053200;28;20032;-80
2023/10/21 11:45:42;;;;;;;42.22;11.73;;;23.50;80.40;;;;;;5053299;28;20394;-80
2023/10/21 11:48:11;;;;;;;44.00;11.57;;;23.50;79.00;;;;;;5052841;28;20021;-80
2023/10/21 11:50:42;;;;;;;34.00;10.88;;;23.40;77.90;;;;;;5053085;28;20055;-81
2023/10/21 11:53:08;;;;;;;43.00;11.00;;;23.40;76.30;;;;;;5053072;28;20036;-80
2023/10/21 12:12:14;;;;;;;42.17;12.27;;;23.30;72.80;;;;;;5053655;28;20506;-80
2023/10/21 12:14:57;;;;;;;47.80;13.93;;;23.20;72.60;;;;;;5053469;28;20028;-80
2023/10/21 12:38:41;;;;;;;39.58;11.90;;;23.00;69.70;;;;;;5053728;28;20112;-80
2023/10/21 12:43:36;;;;;;;39.50;11.98;;;23.10;66.90;;;;;;5052927;28;20049;-79
2023/10/21 12:48:51;;;;;;;49.03;13.48;;;23.10;65.60;;;;;;5053628;28;20078;-80
2023/10/21 12:51:18;;;;;;;51.60;13.27;;;23.10;65.00;;;;;;5051986;28;20021;-80
2023/10/21 12:53:44;;;;;;;38.63;13.73;;;23.10;65.00;;;;;;5053084;28;20364;-82
2023/10/21 12:56:10;;;;;;;40.40;11.90;;;23.10;65.00;;;;;;5053638;28;20107;-80
2023/10/21 12:58:36;;;;;;;46.72;12.93;;;23.10;63.70;;;;;;5042785;28;20127;-78
2023/10/21 13:01:04;;;;;;;41.05;12.70;;;23.10;64.50;;;;;;5052217;28;20052;-80
2023/10/21 13:03:31;;;;;;;32.00;10.75;;;23.10;64.20;;;;;;5041749;28;20486;-80
2023/10/21 13:05:57;;;;;;;34.55;10.82;;;23.10;63.70;;;;;;5032988;28;20036;-78
2023/10/21 13:08:23;;;;;;;35.65;11.98;;;23.10;63.50;;;;;;5047050;28;20033;-80
2023/10/21 13:10:48;;;;;;;40.42;12.40;;;23.10;63.70;;;;;;5043888;28;20078;-80
2023/10/21 13:13:17;;;;;;;40.13;12.00;;;23.10;63.90;;;;;;5051714;28;20024;-81
2023/10/21 13:15:46;;;;;;;38.33;12.25;;;23.10;63.70;;;;;;5052983;28;20048;-79
2023/10/21 13:18:12;;;;;;;35.42;12.50;;;23.10;63.40;;;;;;5051741;28;20116;-80
2023/10/21 13:20:39;;;;;;;45.03;12.02;;;23.10;63.70;;;;;;5052691;28;20430;-82
2023/10/21 13:23:05;;;;;;;33.67;12.88;;;23.10;63.60;;;;;;5053149;28;20383;-80
2023/10/21 13:25:31;;;;;;;42.05;11.48;;;23.00;63.70;;;;;;5055183;28;20025;-79
2023/10/21 13:27:56;;;;;;;47.50;12.13;;;23.00;63.30;;;;;;5056980;28;20119;-82
2023/10/21 13:30:22;;;;;;;41.53;11.77;;;23.00;63.20;;;;;;5057265;28;20061;-80
2023/10/21 13:32:49;;;;;;;40.53;10.68;;;23.00;63.50;;;;;;5055249;28;20024;-81
2023/10/21 13:35:15;;;;;;;41.35;14.05;;;23.00;62.90;;;;;;5056491;28;20017;-80
2023/10/21 13:37:43;;;;;;;41.58;13.57;;;23.00;62.40;;;;;;5056403;28;20041;-80
2023/10/21 13:40:17;;;;;;;37.97;12.85;;;23.00;62.80;;;;;;5056466;28;20024;-81
2023/10/21 13:42:51;;;;;;;47.30;13.30;;;23.00;62.90;;;;;;5055643;28;20079;-80
2023/10/21 13:45:22;;;;;;;33.42;12.65;;;22.90;63.20;;;;;;5056720;28;20025;-79
2023/10/21 13:47:53;;;;;;;54.08;13.02;;;23.00;62.50;;;;;;5056206;28;20073;-80
2023/10/21 13:50:23;;;;;;;47.33;12.10;;;22.90;62.60;;;;;;5056646;28;20029;-80
2023/10/21 13:52:57;;;;;;;38.47;11.80;;;23.00;63.10;;;;;;5055251;28;20048;-80
2023/10/21 13:55:24;;;;;;;35.35;11.85;;;22.90;62.80;;;;;;5056475;28;20529;-81
2023/10/21 13:57:50;;;;;;;42.42;13.20;;;22.90;63.00;;;;;;5050171;28;20036;-79
2023/10/21 14:02:59;;;;;;;45.63;13.40;;;22.90;63.00;;;;;;5056402;28;20079;-79
2023/10/21 14:05:26;;;;;;;45.72;13.23;;;22.90;63.40;;;;;;5054927;28;20021;-78
2023/10/21 14:07:52;;;;;;;45.92;16.00;;;22.80;63.00;;;;;;5035844;28;20349;-81